Time;durP1;ratioP1;P1;durP2;ratioP2;P2;SDS_P1;SDS_P2;PMS_P1;PMS_P2;Temp;Humidity;BMP_temperature;BMP_pressure;BME280_temperature;BME280_humidity;BME280_pressure;Samples;Min_cycle;Max_cycle;Signal;HPM_P1;HPM_P2
2023/10/12 00:01:58;;;;;;;;;4.25;4.00;;;;;21.24;53.58;101054.19;6340140;22;45650;-72
2023/10/12 00:04:35;;;;;;;;;7.00;6.50;;;;;21.24;54.18;101058.78;6339120;22;45530;-72
2023/10/12 00:07:08;;;;;;;;;9.75;5.25;;;;;21.21;53.99;101053.56;6339421;22;45334;-72
2023/10/12 00:09:33;;;;;;;;;7.00;4.00;;;;;21.23;54.39;101051.59;6339134;22;46336;-73
2023/10/12 00:12:07;;;;;;;;;5.00;4.00;;;;;21.21;54.14;101054.41;6339283;22;62415;-72
2023/10/12 00:14:33;;;;;;;;;6.00;5.75;;;;;21.19;53.88;101053.66;6338450;22;45320;-72
2023/10/12 00:16:59;;;;;;;;;5.25;5.25;;;;;21.17;53.68;101052.06;6340185;22;45238;-72
2023/10/12 00:19:25;;;;;;;;;5.75;5.75;;;;;21.20;54.59;101058.13;6339712;22;46135;-72
2023/10/12 00:21:59;;;;;;;;;6.00;6.00;;;;;21.19;54.18;101048.25;6338945;22;45487;-72
2023/10/12 00:24:25;;;;;;;;;9.25;7.50;;;;;21.20;54.70;101049.09;6337990;22;45330;-73
2023/10/12 00:26:50;;;;;;;;;3.00;3.00;;;;;21.19;54.03;101050.09;6340098;22;45503;-72
2023/10/12 00:29:15;;;;;;;;;6.50;5.50;;;;;21.17;54.08;101039.34;6339528;22;45375;-72
2023/10/12 00:31:43;;;;;;;;;7.00;6.00;;;;;21.21;53.99;101045.41;6339615;22;53767;-72
2023/10/12 00:34:10;;;;;;;;;5.25;5.25;;;;;21.20;54.35;101035.53;6340035;22;45317;-73
2023/10/12 00:36:40;;;;;;;;;7.25;6.50;;;;;21.22;54.80;101039.03;6339206;22;45249;-72
2023/10/12 00:39:09;;;;;;;;;7.00;7.00;;;;;21.22;54.65;101045.31;6338809;22;46254;-72
2023/10/12 00:41:37;;;;;;;;;4.75;4.75;;;;;21.22;55.09;101036.31;6339630;22;45536;-72
2023/10/12 00:44:12;;;;;;;;;8.75;6.00;;;;;21.19;55.03;101034.66;6338827;22;45281;-72
2023/10/12 00:46:40;;;;;;;;;7.75;6.00;;;;;21.21;54.17;101034.56;6339279;22;45287;-72
2023/10/12 00:49:48;;;;;;;;;6.50;6.50;;;;;21.19;54.73;101044.66;6339983;22;45341;-72
2023/10/12 00:52:11;;;;;;;;;8.50;8.50;;;;;21.20;54.54;101039.13;6333149;22;45681;-72
2023/10/12 00:57:03;;;;;;;;;5.00;5.00;;;;;21.18;54.59;101037.50;6339782;22;45417;-73
2023/10/12 00:59:32;;;;;;;;;6.75;5.75;;;;;21.19;54.80;101040.09;6338995;22;46014;-72
2023/10/12 01:02:02;;;;;;;;;5.00;4.25;;;;;21.20;55.22;101030.09;6339370;22;45259;-72
2023/10/12 01:04:30;;;;;;;;;7.25;5.00;;;;;21.19;54.72;101022.94;6339132;22;45517;-72
2023/10/12 01:06:59;;;;;;;;;6.50;6.00;;;;;21.20;55.52;101025.56;6339548;22;45456;-72
2023/10/12 01:09:28;;;;;;;;;9.00;7.00;;;;;21.15;54.84;101008.75;6338867;22;46108;-72
2023/10/12 01:12:00;;;;;;;;;6.00;6.00;;;;;21.16;55.45;101015.88;6338788;22;45506;-72
2023/10/12 01:14:27;;;;;;;;;9.50;8.00;;;;;21.15;54.66;101010.56;6339301;22;45537;-72
2023/10/12 01:16:57;;;;;;;;;5.00;5.00;;;;;21.14;55.09;101009.69;6339194;22;45413;-72
2023/10/12 01:19:23;;;;;;;;;5.25;5.25;;;;;21.08;55.70;101002.88;6338764;22;46121;-72
2023/10/12 01:22:12;;;;;;;;;7.00;6.00;;;;;21.17;55.71;101014.06;6338369;22;45580;-72
2023/10/12 01:24:43;;;;;;;;;10.50;6.25;;;;;21.13;55.57;101007.09;6338573;22;45260;-73
2023/10/12 01:27:12;;;;;;;;;5.75;5.50;;;;;21.12;55.41;101005.34;6338971;22;45362;-72
2023/10/12 01:29:38;;;;;;;;;5.25;5.25;;;;;21.15;55.31;101000.59;6338102;22;45364;-72
2023/10/12 01:34:39;;;;;;;;;9.75;8.00;;;;;21.16;54.97;101012.31;6337525;22;45444;-72
2023/10/12 01:37:21;;;;;;;;;9.50;6.00;;;;;21.13;55.58;101015.25;6339126;22;45275;-72
2023/10/12 01:39:57;;;;;;;;;7.00;6.75;;;;;21.14;55.84;101020.56;6338825;22;46214;-72
2023/10/12 01:42:34;;;;;;;;;3.75;3.75;;;;;21.14;56.00;101014.28;6339371;22;45601;-73
2023/10/12 01:44:59;;;;;;;;;7.25;6.75;;;;;21.12;55.95;101017.09;6337778;22;45254;-72
2023/10/12 01:47:25;;;;;;;;;8.75;8.25;;;;;21.13;56.26;101026.09;6339744;22;45313;-72
2023/10/12 01:49:50;;;;;;;;;6.25;6.25;;;;;21.12;55.82;101021.63;6338686;22;64052;-73
2023/10/12 01:52:19;;;;;;;;;7.00;6.00;;;;;21.09;55.65;101022.75;6337864;22;57511;-72
2023/10/12 01:54:48;;;;;;;;;6.75;6.75;;;;;21.07;56.18;101022.00;6338089;22;45298;-73
2023/10/12 01:57:13;;;;;;;;;9.25;6.75;;;;;21.05;56.05;101021.25;6338975;22;45282;-72
2023/10/12 01:59:39;;;;;;;;;7.25;7.25;;;;;21.05;56.03;101015.81;6338952;22;45192;-72
2023/10/12 02:02:07;;;;;;;;;6.75;6.75;;;;;20.99;56.17;101014.41;6338846;22;45249;-72
2023/10/12 02:04:39;;;;;;;;;8.75;8.75;;;;;21.00;56.29;101024.28;6338280;22;45245;-72
2023/10/12 02:07:06;;;;;;;;;8.75;6.50;;;;;21.00;56.32;101024.28;6338434;22;45357;-72
2023/10/12 02:09:34;;;;;;;;;6.25;6.25;;;;;20.99;56.52;101019.81;6339050;22;46080;-72
2023/10/12 02:12:09;;;;;;;;;9.00;8.00;;;;;21.02;56.71;101019.59;6339544;22;45338;-72
2023/10/12 02:14:39;;;;;;;;;5.75;5.00;;;;;20.99;56.32;101019.81;6338524;22;45326;-72
2023/10/12 02:17:05;;;;;;;;;8.25;7.25;;;;;20.98;56.61;101011.78;6338447;22;45536;-73
2023/10/12 02:19:41;;;;;;;;;9.00;6.75;;;;;20.97;56.97;101018.22;6339167;22;46185;-72
2023/10/12 02:22:17;;;;;;;;;6.25;6.00;;;;;20.95;56.56;101018.31;6337907;22;45463;-72
2023/10/12 02:24:43;;;;;;;;;10.25;8.50;;;;;20.98;56.78;101025.34;6338096;22;45246;-72
2023/10/12 02:27:12;;;;;;;;;7.75;7.25;;;;;20.95;56.96;101020.16;6339038;22;45519;-72
2023/10/12 02:29:39;;;;;;;;;7.00;7.00;;;;;20.95;57.02;101022.84;6337688;22;45313;-72
2023/10/12 02:32:23;;;;;;;;;9.00;7.75;;;;;20.90;56.71;101018.66;6338624;22;45282;-72
2023/10/12 02:34:53;;;;;;;;;5.00;4.00;;;;;20.89;56.52;101026.88;6338340;22;45337;-72
2023/10/12 02:37:18;;;;;;;;;9.25;7.25;;;;;20.93;56.59;101041.97;6338490;22;45555;-72
2023/10/12 02:39:46;;;;;;;;;6.50;6.50;;;;;20.93;56.79;101033.81;6338595;22;46131;-72
2023/10/12 02:47:22;;;;;;;;;6.00;6.00;;;;;20.91;56.99;101042.09;6338564;22;45253;-72
2023/10/12 02:49:48;;;;;;;;;6.00;6.00;;;;;20.90;56.46;101034.06;6340787;22;45424;-72
2023/10/12 02:52:14;;;;;;;;;8.25;7.00;;;;;20.91;57.21;101041.22;6339694;22;45294;-73
2023/10/12 02:54:50;;;;;;;;;8.50;7.00;;;;;20.86;57.12;101021.69;6339258;22;45328;-72
2023/10/12 02:57:23;;;;;;;;;5.50;5.00;;;;;20.86;56.78;101005.41;6339260;22;45494;-72
2023/10/12 02:59:56;;;;;;;;;8.50;5.00;;;;;20.90;56.92;101013.22;6340595;22;46052;-72
2023/10/12 03:02:34;;;;;;;;;7.50;5.75;;;;;20.91;56.50;101014.97;6339947;22;45262;-73
2023/10/12 03:05:06;;;;;;;;;8.75;7.25;;;;;20.91;56.53;101014.97;6339871;22;45379;-73
2023/10/12 03:07:35;;;;;;;;;7.25;5.00;;;;;20.92;56.46;101008.53;6339794;22;45425;-72
2023/10/12 03:10:05;;;;;;;;;6.50;5.75;;;;;20.93;56.99;101017.53;6339072;22;45396;-73
2023/10/12 03:12:34;;;;;;;;;3.00;3.00;;;;;20.91;56.50;101008.66;6339374;22;45341;-72
2023/10/12 03:15:03;;;;;;;;;10.25;7.00;;;;;20.87;56.63;101010.72;6340122;22;45401;-72
2023/10/12 03:17:29;;;;;;;;;7.75;6.50;;;;;20.90;57.47;101006.94;6338431;22;45275;-72
2023/10/12 03:20:15;;;;;;;;;10.00;7.50;;;;;20.91;57.28;101014.06;6339426;22;55764;-72
2023/10/12 03:22:43;;;;;;;;;7.25;6.75;;;;;20.82;57.06;100993.91;6339365;22;45779;-72
2023/10/12 03:25:35;;;;;;;;;7.75;5.75;;;;;20.87;57.38;101008.00;6339777;22;45331;-73
2023/10/12 03:28:01;;;;;;;;;8.25;7.25;;;;;20.90;57.01;101017.78;6339457;22;45853;-72
2023/10/12 03:30:34;;;;;;;;;8.00;8.00;;;;;20.75;57.28;101002.56;6339992;22;45307;-72
2023/10/12 03:33:03;;;;;;;;;10.00;8.50;;;;;20.88;57.33;101030.56;6339840;22;45337;-72
2023/10/12 03:35:34;;;;;;;;;12.00;7.00;;;;;20.85;57.49;101023.53;6340072;22;45550;-72
2023/10/12 03:38:12;;;;;;;;;8.00;5.75;;;;;20.88;56.94;101027.84;6340218;22;45357;-72
2023/10/12 03:40:50;;;;;;;;;6.00;5.50;;;;;20.88;57.94;101033.28;6339974;22;45382;-72
2023/10/12 03:43:28;;;;;;;;;10.50;7.00;;;;;20.89;57.89;101044.03;6340009;22;45227;-72
2023/10/12 03:46:07;;;;;;;;;7.00;7.00;;;;;20.89;58.33;101037.75;6340761;22;45240;-72
2023/10/12 03:48:48;;;;;;;;;7.00;6.50;;;;;20.86;58.12;101027.97;6339856;22;45402;-72
2023/10/12 03:53:56;;;;;;;;;7.25;6.75;;;;;20.89;58.25;101021.47;6339757;22;45272;-72
2023/10/12 03:56:23;;;;;;;;;8.00;8.00;;;;;20.91;57.86;101024.94;6339016;22;45391;-72
2023/10/12 03:58:58;;;;;;;;;6.50;6.50;;;;;20.81;58.08;100994.88;6339650;22;45546;-72
2023/10/12 04:01:30;;;;;;;;;6.25;6.25;;;;;20.89;58.08;101016.91;6338761;22;46246;-72
2023/10/12 04:04:08;;;;;;;;;8.75;6.75;;;;;20.90;58.18;101025.94;6339225;22;45180;-72
2023/10/12 04:06:56;;;;;;;;;6.75;6.00;;;;;20.91;58.02;101023.09;6338903;22;45767;-72
2023/10/12 04:09:31;;;;;;;;;7.50;7.50;;;;;20.87;57.95;101012.56;6339056;22;45345;-72
2023/10/12 04:12:11;;;;;;;;;6.25;6.00;;;;;20.89;57.78;101010.59;6340495;22;46031;-72
2023/10/12 04:14:58;;;;;;;;;6.50;6.50;;;;;20.89;58.23;101011.47;6338769;22;45310;-72
2023/10/12 04:25:21;;;;;;;;;6.00;6.00;;;;;20.90;57.87;101017.78;6339635;22;45325;-72
2023/10/12 04:28:32;;;;;;;;;9.00;7.75;;;;;20.92;57.71;101032.09;6339008;22;45268;-73
2023/10/12 04:30:33;;;;;;;;;1.75;0.00;;;;;20.92;58.04;101032.09;6311266;22;45276;-72
2023/10/12 04:33:18;;;;;;;;;10.50;7.75;;;;;20.92;57.97;101035.66;6339030;22;46418;-73
2023/10/12 04:39:11;;;;;;;;;8.50;8.25;;;;;20.94;58.40;101029.28;6339624;22;45473;-72
2023/10/12 04:46:26;;;;;;;;;8.00;7.50;;;;;20.94;58.61;101049.13;6339409;22;45644;-72
2023/10/12 04:51:39;;;;;;;;;8.00;8.00;;;;;20.93;58.38;101039.25;6339630;22;45235;-72
2023/10/12 04:54:16;;;;;;;;;7.00;7.00;;;;;20.90;58.36;101036.78;6339323;22;46464;-73
2023/10/12 04:56:52;;;;;;;;;5.00;4.75;;;;;20.91;58.41;101043.91;6337809;22;45310;-73
2023/10/12 04:59:26;;;;;;;;;7.50;6.25;;;;;20.89;58.63;101038.59;6339334;22;45345;-72
2023/10/12 05:09:35;;;;;;;;;11.00;10.50;;;;;20.83;59.19;101035.47;6339556;22;45331;-72
2023/10/12 05:12:00;;;;;;;;;8.25;8.25;;;;;20.84;58.88;101034.50;6339800;22;45306;-72
2023/10/12 05:14:26;;;;;;;;;8.00;8.00;;;;;20.83;59.18;101035.47;6338574;22;46127;-72
2023/10/12 05:16:51;;;;;;;;;8.50;8.00;;;;;20.78;58.90;101021.34;6339522;22;45311;-72
2023/10/12 05:19:17;;;;;;;;;10.00;9.00;;;;;20.81;59.25;101026.56;6338854;22;45443;-73
2023/10/12 05:21:43;;;;;;;;;10.50;8.25;;;;;20.72;59.06;101015.38;6338288;22;45631;-72
2023/10/12 05:24:09;;;;;;;;;13.25;8.00;;;;;20.81;59.21;101042.84;6338582;22;45961;-73
2023/10/12 05:26:36;;;;;;;;;8.25;8.25;;;;;20.78;59.13;101040.34;6338884;22;45481;-72
2023/10/12 05:37:16;;;;;;;;;9.00;7.75;;;;;20.73;59.20;101027.09;6338083;22;45599;-72
2023/10/12 05:39:52;;;;;;;;;9.00;8.00;;;;;20.67;59.60;101019.41;6338233;22;45333;-72
2023/10/12 05:42:25;;;;;;;;;10.75;10.00;;;;;20.68;59.63;101027.44;6338950;22;45369;-73
2023/10/12 05:44:53;;;;;;;;;15.50;13.25;;;;;20.66;59.67;101021.22;6337847;22;46296;-73
2023/10/12 05:47:28;;;;;;;;;11.75;10.75;;;;;20.69;59.85;101031.00;6336519;22;45217;-72
2023/10/12 05:49:54;;;;;;;;;10.25;8.50;;;;;20.68;59.53;101034.69;6336218;22;45538;-72
2023/10/12 05:52:20;;;;;;;;;15.25;10.25;;;;;20.66;59.94;101048.34;6337138;22;45491;-73
2023/10/12 05:54:45;;;;;;;;;9.00;9.00;;;;;20.69;59.98;101060.84;6337841;22;45989;-72
2023/10/12 05:57:20;;;;;;;;;10.50;7.25;;;;;20.64;60.21;101058.44;6338474;22;50987;-79
2023/10/12 05:59:46;;;;;;;;;11.50;9.25;;;;;20.64;60.08;101065.72;6338111;22;45380;-83
2023/10/12 06:02:13;;;;;;;;;7.75;7.75;;;;;20.63;59.94;101061.28;6339363;22;45338;-84
2023/10/12 06:04:39;;;;;;;;;8.25;7.50;;;;;20.66;60.22;101070.06;6339138;22;46999;-84
2023/10/12 06:07:05;;;;;;;;;12.00;9.00;;;;;20.71;60.17;101077.88;6338280;22;45283;-85
2023/10/12 06:09:37;;;;;;;;;8.00;8.00;;;;;20.71;60.32;101076.06;6338976;22;45310;-86
2023/10/12 06:12:06;;;;;;;;;10.00;9.25;;;;;20.71;60.41;101078.78;6336670;22;45622;-84
2023/10/12 06:14:52;;;;;;;;;10.50;8.25;;;;;20.72;60.30;101085.91;6338136;22;45491;-82
2023/10/12 06:17:28;;;;;;;;;12.50;8.00;;;;;20.69;60.62;101086.13;6337516;22;45523;-83
2023/10/12 06:19:55;;;;;;;;;12.00;10.00;;;;;20.75;60.39;101105.66;6338285;22;45460;-85
2023/10/12 06:22:23;;;;;;;;;12.00;11.00;;;;;20.74;59.87;101102.09;6337588;22;45448;-86
2023/10/12 06:24:52;;;;;;;;;13.50;12.75;;;;;20.76;60.75;101108.25;6339225;22;46283;-85
2023/10/12 06:29:46;;;;;;;;;11.75;11.75;;;;;20.74;60.33;101159.06;6340389;22;45579;-81
2023/10/12 06:32:18;;;;;;;;;8.25;8.25;;;;;20.72;60.65;101178.16;6340000;22;45393;-81
2023/10/12 06:34:45;;;;;;;;;14.75;11.25;;;;;20.68;61.48;101154.03;6339676;22;46109;-80
2023/10/12 06:42:38;;;;;;;;;15.50;11.00;;;;;20.68;63.14;101167.59;6338564;22;45311;-81
2023/10/12 06:45:07;;;;;;;;;13.00;12.50;;;;;20.68;63.78;101144.09;6339564;22;45891;-86
2023/10/12 06:47:41;;;;;;;;;16.00;13.50;;;;;20.55;63.99;101114.19;6339938;22;45646;-86
2023/10/12 06:50:08;;;;;;;;;15.75;14.75;;;;;20.61;64.61;101150.84;6339728;22;45492;-83
2023/10/12 06:52:34;;;;;;;;;11.75;11.75;;;;;20.58;64.91;101151.06;6339792;22;45306;-83
2023/10/12 06:54:59;;;;;;;;;14.75;12.50;;;;;20.60;65.44;101170.81;6339282;22;45342;-83
2023/10/12 06:59:52;;;;;;;;;13.25;12.25;;;;;20.61;66.42;101225.94;6338542;22;45314;-86
2023/10/12 07:02:23;;;;;;;;;13.25;11.50;;;;;20.53;67.33;101213.75;6339169;22;45492;-86
2023/10/12 07:04:55;;;;;;;;;16.75;14.25;;;;;20.53;68.06;101194.78;6336751;22;47077;-74
2023/10/12 07:07:41;;;;;;;;;12.50;10.00;;;;;20.50;68.76;101175.13;6334566;22;45503;-74
2023/10/12 07:12:49;;;;;;;;;14.75;14.00;;;;;20.35;69.52;101175.19;6338751;22;45361;-74
2023/10/12 07:15:21;;;;;;;;;16.00;12.25;;;;;20.31;69.87;101175.47;6338389;22;47093;-73
2023/10/12 07:17:50;;;;;;;;;16.25;13.00;;;;;20.27;70.45;101182.09;6339805;22;45528;-73
2023/10/12 07:20:27;;;;;;;;;16.25;14.50;;;;;20.23;70.91;101167.88;6339628;22;45615;-73
2023/10/12 07:22:54;;;;;;;;;15.00;12.50;;;;;20.27;71.09;101173.94;6339008;22;45443;-74
2023/10/12 07:25:23;;;;;;;;;14.75;12.75;;;;;20.24;71.55;101180.44;6338177;22;46506;-73
2023/10/12 07:27:51;;;;;;;;;11.75;11.00;;;;;20.22;70.96;101173.41;6338327;22;45219;-73
2023/10/12 07:30:36;;;;;;;;;14.25;12.75;;;;;20.16;71.40;101172.81;6339378;22;45327;-73
2023/10/12 07:33:07;;;;;;;;;12.50;11.50;;;;;20.22;71.79;101184.22;6339050;22;45371;-73
2023/10/12 07:35:35;;;;;;;;;16.50;13.50;;;;;20.17;72.06;101187.25;6336828;22;45267;-74
2023/10/12 07:38:05;;;;;;;;;13.75;13.75;;;;;20.14;72.61;101190.16;6340348;22;45700;-74
2023/10/12 07:40:37;;;;;;;;;8.50;8.50;;;;;20.14;72.43;101191.00;6339431;22;45263;-73
2023/10/12 07:43:07;;;;;;;;;14.00;14.00;;;;;20.13;72.65;101201.94;6339419;22;45672;-73
2023/10/12 07:45:47;;;;;;;;;16.50;15.00;;;;;20.09;72.80;101195.00;6338938;22;46172;-73
2023/10/12 07:48:39;;;;;;;;;12.75;12.50;;;;;20.10;73.08;101202.19;6339608;22;45279;-73
2023/10/12 07:51:16;;;;;;;;;18.00;15.50;;;;;20.08;73.57;101204.97;6339346;22;45388;-73
2023/10/12 07:53:57;;;;;;;;;15.75;14.00;;;;;20.08;74.05;101202.28;6337610;22;45290;-73
2023/10/12 07:56:33;;;;;;;;;15.25;14.50;;;;;20.02;73.69;101194.53;6338226;22;46299;-73
2023/10/12 07:59:00;;;;;;;;;13.00;11.00;;;;;20.01;74.06;101191.91;6338307;22;45566;-73
2023/10/12 08:03:58;;;;;;;;;11.00;10.50;;;;;19.96;74.60;101203.94;6336314;22;45255;-73
2023/10/12 08:11:42;;;;;;;;;15.00;14.50;;;;;19.94;75.21;101205.84;6336810;22;45324;-73
2023/10/12 08:19:43;;;;;;;;;14.25;12.50;;;;;19.94;75.33;101197.72;6336765;22;45749;-73
2023/10/12 08:22:25;;;;;;;;;13.50;12.00;;;;;19.98;75.74;101202.00;6337591;22;45353;-73
2023/10/12 08:24:53;;;;;;;;;13.25;13.25;;;;;19.94;75.82;101195.00;6335065;22;45665;-73
2023/10/12 08:27:19;;;;;;;;;13.00;9.50;;;;;19.98;76.08;101204.69;6335380;22;46107;-73
2023/10/12 08:32:15;;;;;;;;;12.00;11.75;;;;;19.95;76.02;101201.31;6336667;22;45287;-73
2023/10/12 08:34:41;;;;;;;;;14.50;14.00;;;;;19.91;76.31;101206.06;6337628;22;45469;-72
2023/10/12 08:45:05;;;;;;;;;12.00;10.00;;;;;19.84;76.62;101204.72;6337516;22;45398;-73
2023/10/12 08:50:05;;;;;;;;;16.00;14.25;;;;;19.90;76.36;101207.03;6336815;22;45259;-73
2023/10/12 08:52:32;;;;;;;;;15.00;14.50;;;;;19.93;76.91;101198.72;6337106;22;45310;-73
2023/10/12 08:55:13;;;;;;;;;19.00;15.50;;;;;19.93;77.03;101196.00;6336359;22;45432;-74
2023/10/12 08:57:52;;;;;;;;;15.00;15.00;;;;;19.96;76.91;101200.34;6338012;22;46506;-73
2023/10/12 09:02:54;;;;;;;;;16.25;13.75;;;;;19.94;76.93;101195.00;6337807;22;45306;-73
2023/10/12 09:05:25;;;;;;;;;18.25;16.75;;;;;19.91;77.39;101188.94;6336561;22;45378;-73
2023/10/12 09:13:35;;;;;;;;;17.50;16.75;;;;;19.90;77.13;101179.09;6336194;22;45433;-73
2023/10/12 09:16:14;;;;;;;;;18.25;15.00;;;;;20.01;76.82;101187.34;6336923;22;45446;-73
2023/10/12 09:18:59;;;;;;;;;25.75;20.25;;;;;19.98;77.21;101184.88;6337429;22;46587;-74
2023/10/12 09:21:42;;;;;;;;;17.50;14.25;;;;;20.03;77.31;101192.69;6337898;22;45561;-73
2023/10/12 09:24:21;;;;;;;;;15.75;14.25;;;;;20.04;77.65;101198.00;6336716;22;45665;-73
2023/10/12 09:26:49;;;;;;;;;16.25;16.00;;;;;20.06;77.58;101193.34;6337374;22;45275;-74
2023/10/12 09:29:21;;;;;;;;;15.00;13.00;;;;;20.05;77.34;101188.06;6337303;22;46941;-73
2023/10/12 09:36:56;;;;;;;;;19.00;15.75;;;;;20.15;76.52;101208.16;6336620;22;45341;-73
2023/10/12 09:39:34;;;;;;;;;16.50;16.25;;;;;20.10;76.87;101192.19;6334634;22;46014;-74
2023/10/12 09:42:09;;;;;;;;;19.75;16.50;;;;;20.18;77.16;101199.84;6338161;22;45461;-73
2023/10/12 09:44:39;;;;;;;;;13.50;12.50;;;;;20.19;77.05;101201.56;6337741;22;45410;-73
2023/10/12 09:47:15;;;;;;;;;21.25;17.00;;;;;20.18;76.75;101199.84;6309973;22;45446;-73
2023/10/12 09:49:47;;;;;;;;;17.00;15.50;;;;;20.12;76.56;101205.66;6331776;22;45430;-73
2023/10/12 09:52:13;;;;;;;;;20.25;19.25;;;;;20.17;76.50;101211.63;6335208;22;45492;-74
2023/10/12 09:55:14;;;;;;;;;18.25;15.75;;;;;20.20;76.48;101211.44;6336863;22;45868;-74
2023/10/12 09:57:49;;;;;;;;;20.25;19.00;;;;;20.22;77.16;101211.34;6338534;22;45341;-73
2023/10/12 10:00:53;;;;;;;;;17.25;16.25;;;;;20.21;77.27;101202.31;6337159;22;46901;-73
2023/10/12 10:03:15;;;;;;;;;15.75;15.50;;;;;20.20;77.46;101197.00;6335262;22;45643;-74
2023/10/12 10:05:54;;;;;;;;;20.25;18.00;;;;;20.20;77.23;101200.59;6338409;22;45445;-73
2023/10/12 10:08:26;;;;;;;;;15.75;14.75;;;;;20.21;77.48;101210.44;6339940;22;45343;-73
2023/10/12 10:10:57;;;;;;;;;14.75;14.50;;;;;20.20;77.71;101188.88;6337907;22;45836;-74
2023/10/12 10:13:49;;;;;;;;;14.75;14.75;;;;;20.24;77.51;101201.25;6338153;22;45808;-74
2023/10/12 10:16:17;;;;;;;;;19.25;18.00;;;;;20.27;77.70;101193.78;6338880;22;45418;-73
2023/10/12 10:19:29;;;;;;;;;19.50;17.50;;;;;20.28;77.59;101202.78;6337181;22;45307;-74
2023/10/12 10:22:04;;;;;;;;;21.00;17.75;;;;;20.29;78.43;101191.84;6333249;22;45818;-74
2023/10/12 10:24:57;;;;;;;;;26.50;23.25;;;;;20.31;77.46;101194.44;6309396;22;45389;-74
2023/10/12 10:27:34;;;;;;;;;18.00;15.50;;;;;20.33;77.83;101190.69;6337831;22;45583;-73
2023/10/12 10:30:28;;;;;;;;;18.25;17.50;;;;;20.35;77.71;101188.72;6338346;22;45366;-73
2023/10/12 10:33:12;;;;;;;;;16.00;14.00;;;;;20.40;77.91;101202.00;6337358;22;46299;-73
2023/10/12 10:36:10;;;;;;;;;16.25;14.75;;;;;20.41;77.40;101198.28;6338572;22;45322;-73
2023/10/12 10:38:39;;;;;;;;;19.25;16.50;;;;;20.48;77.62;101196.03;6336868;22;45473;-73
2023/10/12 10:41:22;;;;;;;;;16.00;15.75;;;;;20.49;77.26;101195.94;6338326;22;45537;-74
2023/10/12 10:43:47;;;;;;;;;18.50;16.50;;;;;20.52;77.88;101201.16;6336947;22;46307;-73
2023/10/12 10:46:16;;;;;;;;;15.25;13.50;;;;;20.53;77.95;101197.47;6337218;22;45358;-74
2023/10/12 10:48:42;;;;;;;;;15.50;14.50;;;;;20.53;77.82;101189.34;6337590;22;45569;-74
2023/10/12 10:51:18;;;;;;;;;20.50;15.75;;;;;20.55;77.87;101197.38;6338772;22;45552;-74
2023/10/12 10:53:51;;;;;;;;;17.00;16.50;;;;;20.59;77.48;101200.75;6336455;22;45486;-74
2023/10/12 10:56:16;;;;;;;;;4.00;2.75;;;;;20.60;77.89;101187.09;6337192;22;45316;-73
2023/10/12 10:58:45;;;;;;;;;19.00;18.25;;;;;20.65;77.96;101193.09;6338136;22;45379;-74
2023/10/12 11:01:12;;;;;;;;;19.50;18.50;;;;;20.66;78.49;101192.13;6336426;22;45696;-74
2023/10/12 11:03:39;;;;;;;;;19.25;17.00;;;;;20.67;77.97;101188.44;6336343;22;46165;-74
2023/10/12 11:06:08;;;;;;;;;17.00;15.00;;;;;20.71;78.69;101190.00;6330228;22;45629;-73
2023/10/12 11:08:34;;;;;;;;;17.25;13.50;;;;;20.75;78.25;101190.66;6338213;22;45434;-74
2023/10/12 11:13:34;;;;;;;;;15.00;14.00;;;;;20.82;78.24;101182.97;6325771;22;45346;-74
2023/10/12 11:16:45;;;;;;;;;14.75;12.50;;;;;20.86;77.98;101187.19;6339056;22;45364;-74
2023/10/12 11:18:54;;;;;;;;;18.25;18.25;;;;;20.88;78.11;101177.09;6320228;22;45248;-73
2023/10/12 11:21:25;;;;;;;;;21.00;16.25;;;;;20.95;78.74;101183.84;6337036;22;45363;-71
2023/10/12 11:24:01;;;;;;;;;17.75;15.00;;;;;20.93;79.04;101164.06;6331588;22;47003;-73
2023/10/12 11:26:26;;;;;;;;;16.50;16.25;;;;;20.98;79.23;101172.78;6337262;22;45401;-73
2023/10/12 11:29:12;;;;;;;;;18.25;18.00;;;;;21.08;79.05;101173.88;6338981;22;45176;-73
2023/10/12 11:31:37;;;;;;;;;20.25;17.50;;;;;21.12;78.62;101173.63;6336792;22;45297;-73
2023/10/12 11:34:11;;;;;;;;;15.00;14.00;;;;;21.15;78.12;101171.59;6337570;22;45290;-73
2023/10/12 11:36:38;;;;;;;;;19.50;18.50;;;;;21.18;79.14;101159.63;6339212;22;45220;-73
2023/10/12 11:39:16;;;;;;;;;21.50;18.75;;;;;21.23;79.68;101154.75;6339299;22;45430;-73
2023/10/12 11:41:42;;;;;;;;;20.50;18.50;;;;;21.27;80.41;101162.59;6338762;22;45370;-69
2023/10/12 11:44:07;;;;;;;;;22.50;16.25;;;;;21.28;80.85;101163.44;6329782;22;45542;-72
2023/10/12 11:46:45;;;;;;;;;17.50;16.25;;;;;21.35;81.67;101159.34;6338887;22;45303;-73
2023/10/12 11:49:11;;;;;;;;;20.50;20.50;;;;;21.42;80.75;101163.34;6338168;22;45736;-72
2023/10/12 11:51:50;;;;;;;;;18.00;18.00;;;;;21.45;80.76;101154.97;6339381;22;45188;-73
2023/10/12 11:54:19;;;;;;;;;23.00;18.50;;;;;21.46;81.41;101148.53;6334847;22;46989;-73
2023/10/12 11:56:46;;;;;;;;;23.25;20.00;;;;;21.53;81.91;101140.84;6336102;22;45556;-73
2023/10/12 11:59:22;;;;;;;;;19.75;17.25;;;;;21.60;80.91;101149.44;6336309;22;45498;-73
2023/10/12 12:01:51;;;;;;;;;16.00;13.50;;;;;21.64;80.45;101151.81;6335862;22;45555;-73
2023/10/12 12:04:24;;;;;;;;;20.00;17.00;;;;;21.68;81.22;101155.19;6301818;22;45991;-74
2023/10/12 12:06:50;;;;;;;;;13.25;13.00;;;;;21.71;80.45;101152.25;6331866;22;45357;-73
2023/10/12 12:09:17;;;;;;;;;16.25;15.75;;;;;21.70;81.32;101146.91;6332841;22;45621;-75
2023/10/12 12:11:42;;;;;;;;;15.50;14.00;;;;;21.78;81.42;101150.81;6332522;22;45444;-75
2023/10/12 12:14:08;;;;;;;;;13.25;13.00;;;;;21.81;81.17;101144.28;6330435;22;59385;-75
2023/10/12 12:16:38;;;;;;;;;16.25;13.50;;;;;21.83;81.13;101139.59;6331942;22;45509;-74
2023/10/12 12:19:04;;;;;;;;;17.50;13.75;;;;;21.86;81.46;101149.41;6331500;22;45478;-73
2023/10/12 12:21:31;;;;;;;;;15.25;12.75;;;;;21.86;81.37;101136.66;6331970;22;45735;-74
2023/10/12 12:24:04;;;;;;;;;11.25;11.25;;;;;21.89;81.65;101135.59;6331117;22;46159;-74
2023/10/12 12:26:33;;;;;;;;;13.00;13.00;;;;;21.92;81.31;101140.75;6330978;22;45733;-74
2023/10/12 12:29:05;;;;;;;;;16.25;15.50;;;;;21.95;81.95;101135.09;6332118;22;45476;-75
2023/10/12 12:31:32;;;;;;;;;15.50;13.25;;;;;21.95;81.73;101130.56;6331463;22;45518;-75
2023/10/12 12:33:58;;;;;;;;;15.00;14.25;;;;;21.94;82.07;101134.25;6329434;22;47040;-73
2023/10/12 12:36:23;;;;;;;;;16.00;13.00;;;;;21.99;81.44;101134.78;6335605;22;45561;-73
2023/10/12 12:38:57;;;;;;;;;15.00;13.25;;;;;22.01;82.17;101143.69;6336273;22;45329;-72
2023/10/12 12:41:23;;;;;;;;;12.25;11.75;;;;;22.00;81.91;101139.25;6337071;22;45351;-72
2023/10/12 12:43:50;;;;;;;;;16.75;13.25;;;;;21.98;81.86;101130.31;6333541;22;46447;-73
2023/10/12 12:46:17;;;;;;;;;15.50;12.25;;;;;22.07;81.79;101153.25;6335837;22;45226;-73
2023/10/12 12:48:45;;;;;;;;;16.50;15.25;;;;;22.09;82.16;101154.00;6336176;22;45433;-73
2023/10/12 12:51:15;;;;;;;;;12.75;11.50;;;;;22.06;81.60;101156.06;6335855;22;45339;-73
2023/10/12 12:53:46;;;;;;;;;13.50;13.50;;;;;22.09;81.68;101153.13;6333239;22;45278;-73
2023/10/12 12:56:21;;;;;;;;;13.25;11.50;;;;;22.15;81.69;101155.38;6287770;22;1092288;-72
2023/10/12 12:58:51;;;;;;;;;14.25;12.75;;;;;22.17;82.11;101150.72;6338394;22;45306;-72
2023/10/12 13:01:24;;;;;;;;;14.25;12.75;;;;;22.18;81.30;101149.72;6338879;22;45251;-73
2023/10/12 13:03:52;;;;;;;;;11.25;10.25;;;;;22.20;81.63;101145.00;6336515;22;46106;-73
2023/10/12 13:06:18;;;;;;;;;13.75;12.25;;;;;22.21;82.63;101150.34;6334672;22;45245;-72
2023/10/12 13:08:43;;;;;;;;;7.50;7.25;;;;;22.17;81.98;101140.69;6336218;22;45250;-72
2023/10/12 13:11:11;;;;;;;;;11.25;9.50;;;;;22.23;81.92;101150.22;6336939;22;46299;-73
2023/10/12 13:13:39;;;;;;;;;13.50;11.75;;;;;22.25;82.00;101158.28;6335310;22;47207;-72
2023/10/12 13:16:05;;;;;;;;;10.50;9.75;;;;;22.21;82.42;101150.34;6333633;22;45530;-76
2023/10/12 13:18:32;;;;;;;;;10.00;9.00;;;;;22.25;81.99;101150.13;6331820;22;45667;-73
2023/10/12 13:20:59;;;;;;;;;9.25;8.00;;;;;22.32;82.45;101159.56;6333416;22;45356;-73